createdAt,value
2024-01-11T00:00:35.787Z,30.77
2024-01-11T00:03:03.191Z,33.70
2024-01-11T00:05:29.866Z,35.23
2024-01-11T00:07:56.672Z,39.37
2024-01-11T00:10:24.160Z,39.23
2024-01-11T00:12:50.925Z,34.87
2024-01-11T00:15:17.598Z,36.70
2024-01-11T00:17:44.516Z,32.70
2024-01-11T00:20:12.703Z,32.47
2024-01-11T00:22:39.366Z,33.70
2024-01-11T00:25:06.257Z,35.17
2024-01-11T00:27:33.254Z,43.03
2024-01-11T00:30:00.311Z,33.97
2024-01-11T00:32:27.139Z,34.37
2024-01-11T00:34:54.072Z,36.73
2024-01-11T00:37:21.016Z,37.60
2024-01-11T00:39:47.767Z,38.13
2024-01-11T00:42:14.398Z,35.83
2024-01-11T00:44:42.188Z,35.20
2024-01-11T00:47:08.812Z,36.70
2024-01-11T00:49:35.479Z,35.00
2024-01-11T00:52:02.484Z,36.23
2024-01-11T00:54:29.388Z,35.13
2024-01-11T00:56:55.997Z,36.07
2024-01-11T00:59:22.737Z,30.93
2024-01-11T01:01:50.438Z,37.83
2024-01-11T01:04:17.940Z,34.33
2024-01-11T01:06:44.997Z,34.70
2024-01-11T01:09:11.764Z,32.37
2024-01-11T01:11:39.170Z,35.63
2024-01-11T01:14:06.489Z,37.37
2024-01-11T01:16:33.182Z,33.27
2024-01-11T01:18:59.985Z,36.57
2024-01-11T01:21:27.141Z,37.77
2024-01-11T01:23:54.200Z,36.77
2024-01-11T01:26:23.354Z,34.33
2024-01-11T01:28:49.990Z,34.77
2024-01-11T01:31:16.912Z,38.43
2024-01-11T01:33:44.090Z,36.93
2024-01-11T01:36:13.552Z,39.63
2024-01-11T01:38:40.395Z,40.90
2024-01-11T01:41:07.199Z,36.67
2024-01-11T01:43:34.369Z,38.37
2024-01-11T01:46:01.475Z,37.10
2024-01-11T01:48:29.135Z,36.80
2024-01-11T01:50:56.822Z,39.37
2024-01-11T01:53:26.386Z,40.63
2024-01-11T01:55:53.953Z,36.10
2024-01-11T01:58:21.502Z,37.70
2024-01-11T02:00:52.153Z,37.67
2024-01-11T02:03:19.514Z,37.23
2024-01-11T02:05:46.535Z,42.97
2024-01-11T02:08:18.216Z,38.23
2024-01-11T02:10:45.457Z,39.50
2024-01-11T02:13:14.330Z,37.73
2024-01-11T02:15:41.472Z,39.50
2024-01-11T02:18:08.693Z,37.57
2024-01-11T02:20:35.563Z,39.20
2024-01-11T02:23:09.293Z,41.70
2024-01-11T02:25:36.082Z,39.53
2024-01-11T02:28:02.771Z,44.87
2024-01-11T02:30:29.474Z,45.00
2024-01-11T02:32:56.760Z,43.77
2024-01-11T02:35:24.575Z,39.97
2024-01-11T02:37:51.833Z,40.87
2024-01-11T02:40:20.322Z,40.73
2024-01-11T02:42:47.702Z,41.57
2024-01-11T02:45:14.707Z,42.30
2024-01-11T02:47:41.581Z,32.47
2024-01-11T02:50:09.240Z,42.73
2024-01-11T02:52:36.428Z,41.47
2024-01-11T02:55:03.382Z,39.60
2024-01-11T02:57:30.045Z,42.67
2024-01-11T02:59:56.887Z,41.63
2024-01-11T03:02:23.906Z,40.40
2024-01-11T03:04:50.813Z,36.40
2024-01-11T03:07:17.493Z,43.13
2024-01-11T03:09:44.083Z,43.70
2024-01-11T03:12:11.310Z,41.97
2024-01-11T03:14:37.996Z,42.80
2024-01-11T03:17:05.997Z,42.97
2024-01-11T03:19:33.020Z,42.27
2024-01-11T03:21:59.742Z,43.20
2024-01-11T03:24:26.329Z,37.43
2024-01-11T03:26:53.239Z,39.50
2024-01-11T03:29:20.058Z,35.13
2024-01-11T03:31:46.810Z,39.80
2024-01-11T03:34:13.892Z,49.63
2024-01-11T03:36:41.350Z,48.30
2024-01-11T03:39:08.041Z,42.47
2024-01-11T03:41:35.221Z,44.40
2024-01-11T03:44:02.532Z,40.47
2024-01-11T03:46:29.198Z,38.57
2024-01-11T03:48:57.240Z,37.50
2024-01-11T03:51:24.220Z,44.37
2024-01-11T03:53:50.991Z,43.93
2024-01-11T03:56:18.126Z,35.13
2024-01-11T03:58:46.474Z,41.17
2024-01-11T04:01:13.386Z,41.83
2024-01-11T04:03:40.530Z,41.13
2024-01-11T04:06:07.859Z,37.37
2024-01-11T04:08:34.861Z,43.43
2024-01-11T04:11:08.285Z,40.37
2024-01-11T04:13:34.929Z,36.13
2024-01-11T04:18:36.529Z,37.33
2024-01-11T04:21:03.286Z,38.37
2024-01-11T04:23:29.905Z,39.40
2024-01-11T04:25:56.580Z,36.63
2024-01-11T04:28:24.346Z,42.50
2024-01-11T04:30:51.044Z,37.80
2024-01-11T04:33:17.825Z,38.30
2024-01-11T04:35:44.553Z,39.63
2024-01-11T04:38:12.149Z,40.03
2024-01-11T04:40:39.247Z,39.80
2024-01-11T04:43:05.835Z,39.67
2024-01-11T04:45:32.417Z,44.63
2024-01-11T04:47:59.596Z,43.03
2024-01-11T04:50:26.421Z,37.90
2024-01-11T04:52:53.540Z,38.83
2024-01-11T04:55:20.199Z,39.97
2024-01-11T04:57:46.989Z,50.23
2024-01-11T05:00:13.964Z,58.70
2024-01-11T05:02:41.008Z,46.80
2024-01-11T05:05:07.742Z,43.47
2024-01-11T05:07:35.889Z,40.73
2024-01-11T05:10:02.526Z,50.77
2024-01-11T05:12:29.129Z,39.23
2024-01-11T05:14:55.934Z,40.37
2024-01-11T05:17:22.605Z,39.83
2024-01-11T05:19:49.249Z,38.93
2024-01-11T05:22:16.664Z,42.03
2024-01-11T05:24:43.265Z,39.73
2024-01-11T05:27:09.956Z,36.63
2024-01-11T05:29:37.359Z,39.97
2024-01-11T05:32:04.498Z,40.80
2024-01-11T05:34:31.545Z,45.77
2024-01-11T05:37:00.392Z,44.43
2024-01-11T05:39:27.689Z,37.13
2024-01-11T05:41:54.286Z,42.20
2024-01-11T05:44:21.859Z,42.77
2024-01-11T05:46:48.515Z,39.20
2024-01-11T05:49:15.209Z,40.03
2024-01-11T05:51:42.004Z,41.87
2024-01-11T05:54:08.619Z,35.40
2024-01-11T05:56:35.332Z,38.77
2024-01-11T05:59:02.464Z,42.50
2024-01-11T06:01:29.138Z,46.37
2024-01-11T06:03:56.451Z,40.37
2024-01-11T06:06:23.183Z,40.47
2024-01-11T06:08:49.995Z,40.00
2024-01-11T06:11:20.455Z,46.40
2024-01-11T06:13:47.112Z,42.00
2024-01-11T06:16:13.978Z,42.27
2024-01-11T06:18:40.849Z,40.50
2024-01-11T06:21:07.672Z,42.97
2024-01-11T06:23:34.456Z,36.30
2024-01-11T06:26:01.256Z,39.53
2024-01-11T06:28:27.914Z,37.23
2024-01-11T06:30:55.295Z,40.83
2024-01-11T06:33:22.560Z,38.17
2024-01-11T06:35:49.239Z,41.57
2024-01-11T06:38:15.949Z,38.87
2024-01-11T06:40:43.154Z,43.93
2024-01-11T06:43:09.838Z,40.33
2024-01-11T06:45:36.742Z,38.87
2024-01-11T06:48:03.950Z,37.50
2024-01-11T06:50:30.647Z,37.50
2024-01-11T06:52:57.316Z,39.53
2024-01-11T06:55:24.620Z,40.00
2024-01-11T06:57:51.236Z,48.07
2024-01-11T07:00:18.108Z,47.03
2024-01-11T07:02:44.825Z,42.00
2024-01-11T07:05:11.692Z,40.97
2024-01-11T07:07:38.608Z,39.67
2024-01-11T07:10:06.853Z,42.57
2024-01-11T07:12:34.192Z,41.33
2024-01-11T07:15:00.996Z,40.13
2024-01-11T07:17:27.739Z,43.50
2024-01-11T07:19:57.201Z,38.57
2024-01-11T07:22:23.827Z,42.23
2024-01-11T07:24:50.426Z,47.00
2024-01-11T07:27:17.418Z,39.60
2024-01-11T07:29:44.084Z,41.73
2024-01-11T07:32:13.117Z,42.60
2024-01-11T07:34:39.981Z,40.37
2024-01-11T07:37:06.695Z,57.60
2024-01-11T07:39:33.362Z,41.40
2024-01-11T07:42:00.008Z,40.87
2024-01-11T07:44:26.648Z,42.50
2024-01-11T07:46:55.157Z,40.40
2024-01-11T07:49:23.409Z,42.10
2024-01-11T07:51:50.432Z,42.03
2024-01-11T07:54:17.462Z,41.27
2024-01-11T07:56:44.509Z,47.07
2024-01-11T07:59:16.453Z,42.43
2024-01-11T08:01:43.811Z,44.13
2024-01-11T08:04:10.638Z,45.93
2024-01-11T08:06:37.425Z,45.13
2024-01-11T08:09:06.461Z,43.07
2024-01-11T08:11:36.576Z,43.43
2024-01-11T08:14:07.220Z,47.30
2024-01-11T08:16:34.305Z,50.93
2024-01-11T08:19:02.523Z,51.53
2024-01-11T08:21:30.014Z,49.47
2024-01-11T08:24:00.446Z,44.03
2024-01-11T08:26:31.523Z,38.63
2024-01-11T08:28:58.470Z,42.37
2024-01-11T08:31:25.783Z,43.80
2024-01-11T08:33:52.870Z,41.83
2024-01-11T08:36:19.800Z,41.90
2024-01-11T08:38:46.449Z,43.53
2024-01-11T08:41:13.366Z,43.20
2024-01-11T08:43:40.835Z,44.97
2024-01-11T08:46:07.481Z,41.07
2024-01-11T08:48:34.871Z,45.80
2024-01-11T08:51:02.357Z,41.53
2024-01-11T08:53:29.180Z,43.50
2024-01-11T08:55:55.805Z,43.57
2024-01-11T08:58:22.789Z,46.30
2024-01-11T09:00:49.530Z,48.83
2024-01-11T09:03:18.210Z,41.37
2024-01-11T09:05:45.310Z,41.50
2024-01-11T09:08:12.045Z,46.27
2024-01-11T09:10:38.917Z,47.77
2024-01-11T09:13:05.716Z,43.00
2024-01-11T09:15:33.068Z,46.57
2024-01-11T09:18:01.899Z,44.40
2024-01-11T09:20:28.824Z,44.57
2024-01-11T09:22:55.581Z,40.43
2024-01-11T09:25:22.216Z,43.03
2024-01-11T09:27:49.091Z,40.10
2024-01-11T09:30:15.933Z,43.10
2024-01-11T09:32:43.046Z,41.10
2024-01-11T09:35:11.971Z,40.20
2024-01-11T09:37:41.122Z,42.10
2024-01-11T09:40:11.978Z,42.80
2024-01-11T09:42:39.105Z,46.13
2024-01-11T09:45:18.918Z,44.57
2024-01-11T09:47:50.101Z,43.97
2024-01-11T09:50:19.570Z,46.73
2024-01-11T09:52:49.014Z,51.13
2024-01-11T09:55:16.006Z,46.13
2024-01-11T09:57:46.028Z,42.27
2024-01-11T10:00:17.570Z,42.17
2024-01-11T10:02:44.251Z,39.00
2024-01-11T10:05:11.698Z,42.47
2024-01-11T10:07:39.378Z,41.47
2024-01-11T10:10:06.992Z,40.23
2024-01-11T10:12:36.205Z,43.23
2024-01-11T10:15:09.642Z,52.57
2024-01-11T10:17:45.951Z,42.17
2024-01-11T10:20:15.642Z,41.87
2024-01-11T10:22:45.984Z,44.63
2024-01-11T10:25:16.986Z,44.57
2024-01-11T10:27:45.542Z,44.17
2024-01-11T10:30:18.528Z,40.20
2024-01-11T10:32:46.168Z,41.37
2024-01-11T10:35:13.112Z,44.23
2024-01-11T10:37:40.329Z,43.87
2024-01-11T10:40:12.229Z,46.07
2024-01-11T10:42:46.584Z,48.03
2024-01-11T10:45:18.419Z,47.50
2024-01-11T10:48:00.030Z,44.67
2024-01-11T10:50:32.494Z,41.00
2024-01-11T10:53:03.804Z,39.43
2024-01-11T10:55:33.935Z,49.83
2024-01-11T10:58:02.638Z,42.27
2024-01-11T11:00:31.209Z,43.70
2024-01-11T11:03:02.225Z,44.00
2024-01-11T11:05:31.940Z,42.40
2024-01-11T11:08:03.238Z,43.83
2024-01-11T11:10:31.840Z,44.97
2024-01-11T11:13:01.216Z,40.47
2024-01-11T11:15:32.407Z,44.13
2024-01-11T11:17:59.302Z,40.30
2024-01-11T11:20:26.694Z,41.33
2024-01-11T11:23:11.222Z,40.40
2024-01-11T11:25:38.710Z,36.60
2024-01-11T11:28:06.296Z,38.30
2024-01-11T11:30:34.261Z,36.47
2024-01-11T11:33:32.416Z,41.07
2024-01-11T11:36:00.037Z,36.77
2024-01-11T11:38:32.323Z,38.10
2024-01-11T11:41:00.993Z,38.17
2024-01-11T11:43:29.329Z,38.13
2024-01-11T11:45:58.857Z,40.47
2024-01-11T11:48:30.962Z,36.57
2024-01-11T11:51:06.940Z,39.93
2024-01-11T11:53:37.442Z,34.33
2024-01-11T11:56:05.137Z,43.57
2024-01-11T11:58:33.306Z,34.00
2024-01-11T12:01:01.745Z,36.43
2024-01-11T12:03:32.871Z,39.80
2024-01-11T12:06:01.064Z,44.27
2024-01-11T12:08:28.671Z,40.73
2024-01-11T12:10:55.758Z,35.93
2024-01-11T12:13:23.334Z,35.67
2024-01-11T12:15:49.981Z,35.47
2024-01-11T12:18:16.943Z,36.50
2024-01-11T12:20:44.135Z,39.20
2024-01-11T12:23:11.458Z,37.17
2024-01-11T12:25:38.134Z,32.07
2024-01-11T12:28:07.551Z,38.67
2024-01-11T12:30:34.777Z,37.90
2024-01-11T12:33:05.384Z,30.23
2024-01-11T12:35:32.607Z,30.93
2024-01-11T12:38:07.784Z,34.43
2024-01-11T12:40:38.987Z,29.63
2024-01-11T12:43:06.827Z,28.53
2024-01-11T12:45:33.849Z,29.53
2024-01-11T12:48:01.368Z,31.77
2024-01-11T12:50:29.598Z,34.60
2024-01-11T12:53:07.800Z,29.33
2024-01-11T12:55:45.008Z,31.07
2024-01-11T12:58:25.743Z,36.20
2024-01-11T13:00:53.434Z,28.87
2024-01-11T13:03:23.239Z,31.83
2024-01-11T13:05:50.588Z,34.13
2024-01-11T13:08:20.499Z,32.17
2024-01-11T13:10:49.596Z,30.50
2024-01-11T13:13:16.986Z,25.47
2024-01-11T13:15:43.884Z,30.90
2024-01-11T13:18:10.936Z,26.47
2024-01-11T13:20:37.819Z,29.63
2024-01-11T13:23:22.293Z,25.57
2024-01-11T13:25:53.732Z,26.70
2024-01-11T13:28:20.676Z,26.93
2024-01-11T13:30:48.250Z,21.50
2024-01-11T13:33:17.931Z,24.90
2024-01-11T13:35:45.105Z,30.47
2024-01-11T13:38:12.250Z,28.80
2024-01-11T13:40:41.683Z,24.80
2024-01-11T13:43:08.761Z,30.70
2024-01-11T13:45:37.741Z,25.00
2024-01-11T13:48:06.091Z,23.30
2024-01-11T13:50:36.418Z,26.10
2024-01-11T13:53:03.623Z,20.97
2024-01-11T13:55:39.352Z,21.97
2024-01-11T13:58:07.111Z,20.67
2024-01-11T14:00:33.876Z,24.17
2024-01-11T14:03:00.881Z,23.13
2024-01-11T14:05:27.748Z,21.70
2024-01-11T14:08:00.436Z,20.30
2024-01-11T14:10:28.390Z,21.50
2024-01-11T14:12:55.552Z,24.60
2024-01-11T14:15:22.337Z,23.17
2024-01-11T14:17:50.056Z,23.40
2024-01-11T14:20:17.623Z,27.17
2024-01-11T14:22:50.717Z,22.27
2024-01-11T14:25:19.107Z,22.30
2024-01-11T14:27:45.921Z,21.87
2024-01-11T14:30:14.124Z,26.33
2024-01-11T14:32:42.530Z,20.67
2024-01-11T14:35:10.459Z,25.70
2024-01-11T14:37:38.984Z,25.43
2024-01-11T14:40:12.572Z,21.50
2024-01-11T14:42:40.375Z,21.50
2024-01-11T14:45:10.681Z,25.63
2024-01-11T14:47:37.961Z,26.10
2024-01-11T14:50:05.826Z,28.80
2024-01-11T14:52:32.803Z,25.33
2024-01-11T14:55:00.328Z,26.67
2024-01-11T14:57:27.025Z,21.67
2024-01-11T14:59:54.468Z,22.13
2024-01-11T15:02:21.550Z,21.80
2024-01-11T15:04:48.592Z,22.67
2024-01-11T15:07:15.862Z,22.30
2024-01-11T15:09:42.634Z,19.03
2024-01-11T15:12:09.611Z,20.30
2024-01-11T15:14:36.388Z,23.20
2024-01-11T15:17:03.834Z,21.47
2024-01-11T15:19:31.032Z,21.27
2024-01-11T15:21:57.768Z,21.57
2024-01-11T15:24:24.459Z,19.70
2024-01-11T15:26:51.282Z,20.47
2024-01-11T15:29:18.482Z,19.13
2024-01-11T15:31:47.775Z,18.43
2024-01-11T15:34:18.408Z,18.47
2024-01-11T15:36:45.498Z,19.90
2024-01-11T15:39:21.616Z,17.70
2024-01-11T15:41:58.537Z,19.67
2024-01-11T15:44:29.171Z,24.37
2024-01-11T15:46:57.683Z,20.40
2024-01-11T15:49:24.853Z,19.20
2024-01-11T15:51:51.920Z,15.43
2024-01-11T15:54:18.585Z,14.00
2024-01-11T15:56:45.380Z,15.30
2024-01-11T15:59:12.291Z,15.40
2024-01-11T16:01:51.010Z,12.90
2024-01-11T16:04:29.679Z,11.40
2024-01-11T16:06:56.626Z,13.47
2024-01-11T16:09:24.818Z,9.63
2024-01-11T16:11:51.766Z,10.07
2024-01-11T16:14:18.856Z,9.37
2024-01-11T16:16:45.502Z,14.37
2024-01-11T16:19:12.372Z,9.40
2024-01-11T16:21:39.501Z,10.33
2024-01-11T16:24:06.195Z,10.17
2024-01-11T16:26:32.873Z,10.93
2024-01-11T16:28:59.521Z,10.80
2024-01-11T16:31:26.318Z,14.37
2024-01-11T16:33:54.318Z,11.07
2024-01-11T16:36:21.281Z,12.73
2024-01-11T16:38:48.398Z,45.73
2024-01-11T16:41:15.282Z,23.07
2024-01-11T16:43:41.986Z,15.53
2024-01-11T16:46:08.919Z,13.63
2024-01-11T16:48:36.067Z,13.27
2024-01-11T16:51:03.328Z,14.30
2024-01-11T16:53:30.047Z,14.83
2024-01-11T16:55:56.866Z,12.50
2024-01-11T16:58:23.512Z,15.97
2024-01-11T17:00:50.181Z,14.13
2024-01-11T17:03:17.510Z,13.00
2024-01-11T17:05:44.477Z,15.63
2024-01-11T17:08:11.150Z,13.73
2024-01-11T17:10:39.219Z,15.73
2024-01-11T17:13:06.078Z,17.70
2024-01-11T17:15:33.411Z,15.00
2024-01-11T17:18:00.284Z,14.10
2024-01-11T17:20:27.733Z,19.17
2024-01-11T17:22:55.219Z,15.80
2024-01-11T17:25:22.296Z,17.80
2024-01-11T17:27:48.991Z,18.13
2024-01-11T17:30:16.079Z,16.77
2024-01-11T17:32:42.831Z,18.53
2024-01-11T17:35:10.189Z,50.70
2024-01-11T17:37:37.254Z,36.73
2024-01-11T17:40:05.867Z,27.83
2024-01-11T17:42:32.672Z,18.10
2024-01-11T17:44:59.691Z,19.87
2024-01-11T17:47:26.504Z,16.57
2024-01-11T17:49:53.344Z,17.13
2024-01-11T17:52:21.801Z,16.53
2024-01-11T17:54:48.705Z,18.27
2024-01-11T17:57:15.841Z,18.53
2024-01-11T17:59:45.887Z,16.77
2024-01-11T18:02:13.178Z,15.83
2024-01-11T18:04:40.435Z,17.03
2024-01-11T18:07:07.213Z,17.80
2024-01-11T18:09:36.875Z,16.83
2024-01-11T18:12:03.718Z,15.27
2024-01-11T18:14:30.384Z,15.63
2024-01-11T18:16:57.030Z,17.43
2024-01-11T18:19:23.719Z,19.00
2024-01-11T18:21:50.414Z,19.67
2024-01-11T18:24:17.195Z,19.10
2024-01-11T18:26:43.841Z,19.67
2024-01-11T18:29:10.775Z,15.43
2024-01-11T18:31:40.076Z,17.73
2024-01-11T18:34:07.146Z,16.77
2024-01-11T18:36:44.481Z,16.10
2024-01-11T18:39:11.453Z,17.87
2024-01-11T18:41:38.349Z,16.40
2024-01-11T18:44:05.234Z,17.33
2024-01-11T18:46:31.909Z,16.10
2024-01-11T18:48:58.697Z,16.40
2024-01-11T18:51:25.571Z,15.10
2024-01-11T18:53:52.546Z,18.00
2024-01-11T18:56:19.438Z,16.93
2024-01-11T18:58:46.160Z,17.10
2024-01-11T19:01:13.222Z,18.03
2024-01-11T19:03:41.065Z,19.03
2024-01-11T19:06:09.087Z,17.43
2024-01-11T19:08:36.175Z,18.27
2024-01-11T19:11:03.100Z,21.90
2024-01-11T19:13:29.743Z,21.33
2024-01-11T19:15:56.701Z,20.67
2024-01-11T19:18:23.550Z,20.67
2024-01-11T19:20:54.453Z,24.03
2024-01-11T19:23:26.886Z,21.60
2024-01-11T19:25:58.381Z,21.87
2024-01-11T19:28:25.880Z,22.07
2024-01-11T19:30:52.676Z,20.83
2024-01-11T19:33:19.565Z,22.00
2024-01-11T19:35:46.487Z,23.47
2024-01-11T19:38:13.819Z,27.47
2024-01-11T19:40:43.834Z,27.53
2024-01-11T19:43:10.690Z,29.97
2024-01-11T19:45:37.497Z,27.40
2024-01-11T19:48:04.866Z,24.53
2024-01-11T19:50:34.862Z,28.87
2024-01-11T19:53:01.841Z,24.63
2024-01-11T19:55:28.837Z,25.93
2024-01-11T19:57:55.505Z,28.10
2024-01-11T20:00:23.034Z,27.00
2024-01-11T20:02:50.990Z,25.47
2024-01-11T20:05:17.693Z,25.50
2024-01-11T20:07:44.842Z,26.60
2024-01-11T20:10:12.311Z,27.23
2024-01-11T20:12:39.132Z,27.73
2024-01-11T20:15:08.326Z,31.37
2024-01-11T20:17:35.302Z,34.00
2024-01-11T20:20:02.266Z,28.37
2024-01-11T20:22:31.743Z,27.47
2024-01-11T20:24:58.379Z,27.80
2024-01-11T20:27:24.986Z,33.03
2024-01-11T20:29:51.665Z,29.30
2024-01-11T20:32:18.613Z,29.37
2024-01-11T20:34:45.345Z,27.33
2024-01-11T20:37:12.207Z,29.33
2024-01-11T20:39:39.407Z,30.67
2024-01-11T20:42:08.253Z,27.93
2024-01-11T20:44:37.635Z,31.77
2024-01-11T20:47:05.297Z,27.77
2024-01-11T20:49:31.988Z,27.57
2024-01-11T20:52:00.529Z,29.73
2024-01-11T20:54:27.634Z,26.57
2024-01-11T20:56:56.619Z,26.57
2024-01-11T20:59:23.572Z,27.70
2024-01-11T21:01:50.771Z,24.43
2024-01-11T21:04:17.575Z,29.60
2024-01-11T21:06:45.680Z,29.43
2024-01-11T21:09:12.944Z,27.80
2024-01-11T21:11:39.588Z,26.87
2024-01-11T21:14:06.399Z,29.30
2024-01-11T21:16:33.147Z,30.50
2024-01-11T21:18:59.888Z,27.63
2024-01-11T21:21:27.755Z,29.47
2024-01-11T21:23:58.777Z,29.67
2024-01-11T21:26:25.542Z,29.33
2024-01-11T21:28:54.903Z,30.40
2024-01-11T21:31:26.028Z,31.73
2024-01-11T21:33:53.517Z,29.17
2024-01-11T21:36:24.545Z,30.23
2024-01-11T21:38:56.558Z,31.07
2024-01-11T21:41:23.815Z,33.63
2024-01-11T21:43:52.122Z,36.60
2024-01-11T21:46:19.357Z,29.47
2024-01-11T21:48:46.530Z,33.00
2024-01-11T21:51:13.564Z,33.87
2024-01-11T21:53:41.110Z,34.37
2024-01-11T21:56:07.750Z,38.67
2024-01-11T21:58:36.008Z,32.20
2024-01-11T22:01:03.168Z,35.03
2024-01-11T22:03:30.121Z,34.90
2024-01-11T22:05:57.020Z,32.57
2024-01-11T22:08:24.047Z,33.43
2024-01-11T22:10:51.789Z,36.50
2024-01-11T22:13:18.542Z,34.80
2024-01-11T22:15:45.577Z,33.20
2024-01-11T22:18:12.713Z,33.60
2024-01-11T22:20:39.938Z,36.03
2024-01-11T22:23:07.234Z,34.37
2024-01-11T22:25:34.660Z,37.43
2024-01-11T22:28:02.850Z,36.03
2024-01-11T22:30:29.850Z,36.53
2024-01-11T22:32:59.267Z,34.33
2024-01-11T22:35:26.145Z,36.57
2024-01-11T22:37:53.051Z,37.10
2024-01-11T22:40:20.016Z,35.57
2024-01-11T22:42:46.803Z,39.03
2024-01-11T22:45:13.525Z,37.43
2024-01-11T22:47:41.066Z,37.13
2024-01-11T22:50:08.405Z,36.23
2024-01-11T22:52:35.578Z,38.13
2024-01-11T22:55:02.398Z,38.77
2024-01-11T22:57:29.112Z,36.20
2024-01-11T22:59:56.047Z,40.13
2024-01-11T23:02:23.272Z,37.33
2024-01-11T23:04:51.199Z,40.63
2024-01-11T23:07:18.684Z,37.37
2024-01-11T23:09:45.679Z,37.33
2024-01-11T23:12:12.630Z,37.83
2024-01-11T23:14:39.543Z,37.47
2024-01-11T23:17:07.708Z,37.03
2024-01-11T23:19:34.770Z,37.50
2024-01-11T23:22:01.930Z,37.47
2024-01-11T23:24:28.670Z,38.27
2024-01-11T23:26:56.191Z,39.60
2024-01-11T23:29:23.086Z,42.90
2024-01-11T23:31:51.352Z,42.17
2024-01-11T23:34:18.196Z,39.87
2024-01-11T23:36:44.962Z,36.70
2024-01-11T23:39:11.934Z,42.03
2024-01-11T23:41:38.776Z,44.93
2024-01-11T23:44:05.838Z,43.97
2024-01-11T23:46:32.951Z,43.50
2024-01-11T23:48:59.833Z,42.33
2024-01-11T23:51:27.037Z,45.37
2024-01-11T23:53:53.910Z,42.90
2024-01-11T23:56:20.714Z,43.57
2024-01-11T23:58:47.428Z,40.97
